sensor_id;sensor_type;location;lat;lon;timestamp;P1;durP1;ratioP1;P2;durP2;ratioP2
33836;SDS011;20140;49.356;8.812;2023-05-28T00:00:25;9.68;;;3.40;;
33836;SDS011;20140;49.356;8.812;2023-05-28T00:02:52;6.87;;;3.33;;
33836;SDS011;20140;49.356;8.812;2023-05-28T00:05:17;7.60;;;3.77;;
33836;SDS011;20140;49.356;8.812;2023-05-28T00:07:43;7.20;;;3.73;;
33836;SDS011;20140;49.356;8.812;2023-05-28T00:10:09;8.37;;;3.97;;
33836;SDS011;20140;49.356;8.812;2023-05-28T00:12:35;7.57;;;4.00;;
33836;SDS011;20140;49.356;8.812;2023-05-28T00:15:01;4.70;;;3.40;;
33836;SDS011;20140;49.356;8.812;2023-05-28T00:17:27;8.70;;;3.72;;
33836;SDS011;20140;49.356;8.812;2023-05-28T00:19:53;6.43;;;3.35;;
33836;SDS011;20140;49.356;8.812;2023-05-28T00:22:18;6.25;;;3.40;;
33836;SDS011;20140;49.356;8.812;2023-05-28T00:24:44;7.97;;;4.18;;
33836;SDS011;20140;49.356;8.812;2023-05-28T00:27:10;5.88;;;3.42;;
33836;SDS011;20140;49.356;8.812;2023-05-28T00:29:35;7.75;;;3.38;;
33836;SDS011;20140;49.356;8.812;2023-05-28T00:32:01;8.30;;;3.90;;
33836;SDS011;20140;49.356;8.812;2023-05-28T00:34:26;6.77;;;3.43;;
33836;SDS011;20140;49.356;8.812;2023-05-28T00:36:52;11.07;;;4.07;;
33836;SDS011;20140;49.356;8.812;2023-05-28T00:39:18;6.95;;;3.33;;
33836;SDS011;20140;49.356;8.812;2023-05-28T00:41:44;7.97;;;3.80;;
33836;SDS011;20140;49.356;8.812;2023-05-28T00:44:10;7.13;;;3.38;;
33836;SDS011;20140;49.356;8.812;2023-05-28T00:46:40;5.68;;;3.60;;
33836;SDS011;20140;49.356;8.812;2023-05-28T00:49:06;5.80;;;3.80;;
33836;SDS011;20140;49.356;8.812;2023-05-28T00:51:34;5.93;;;3.50;;
33836;SDS011;20140;49.356;8.812;2023-05-28T00:54:00;5.23;;;3.03;;
33836;SDS011;20140;49.356;8.812;2023-05-28T00:56:26;8.63;;;3.65;;
33836;SDS011;20140;49.356;8.812;2023-05-28T00:58:52;4.78;;;3.10;;
33836;SDS011;20140;49.356;8.812;2023-05-28T01:01:18;7.10;;;3.75;;
33836;SDS011;20140;49.356;8.812;2023-05-28T01:03:44;8.25;;;3.88;;
33836;SDS011;20140;49.356;8.812;2023-05-28T01:06:10;5.78;;;4.57;;
33836;SDS011;20140;49.356;8.812;2023-05-28T01:08:38;7.45;;;3.67;;
33836;SDS011;20140;49.356;8.812;2023-05-28T01:11:05;7.40;;;3.80;;
33836;SDS011;20140;49.356;8.812;2023-05-28T01:13:33;7.53;;;3.55;;
33836;SDS011;20140;49.356;8.812;2023-05-28T01:16:00;8.27;;;4.13;;
33836;SDS011;20140;49.356;8.812;2023-05-28T01:18:26;5.38;;;3.58;;
33836;SDS011;20140;49.356;8.812;2023-05-28T01:20:52;9.43;;;3.83;;
33836;SDS011;20140;49.356;8.812;2023-05-28T01:23:19;9.67;;;3.60;;
33836;SDS011;20140;49.356;8.812;2023-05-28T01:25:50;6.50;;;3.55;;
33836;SDS011;20140;49.356;8.812;2023-05-28T01:28:16;8.07;;;3.80;;
33836;SDS011;20140;49.356;8.812;2023-05-28T01:30:42;7.23;;;4.07;;
33836;SDS011;20140;49.356;8.812;2023-05-28T01:33:08;8.32;;;3.80;;
33836;SDS011;20140;49.356;8.812;2023-05-28T01:35:36;5.38;;;3.58;;
33836;SDS011;20140;49.356;8.812;2023-05-28T01:38:02;4.80;;;3.25;;
33836;SDS011;20140;49.356;8.812;2023-05-28T01:40:28;6.28;;;3.67;;
33836;SDS011;20140;49.356;8.812;2023-05-28T01:42:55;6.37;;;4.10;;
33836;SDS011;20140;49.356;8.812;2023-05-28T01:45:21;7.43;;;3.83;;
33836;SDS011;20140;49.356;8.812;2023-05-28T01:47:48;7.28;;;3.47;;
33836;SDS011;20140;49.356;8.812;2023-05-28T01:50:14;5.53;;;3.37;;
33836;SDS011;20140;49.356;8.812;2023-05-28T01:52:40;7.53;;;3.60;;
33836;SDS011;20140;49.356;8.812;2023-05-28T01:55:06;7.82;;;3.78;;
33836;SDS011;20140;49.356;8.812;2023-05-28T01:57:34;7.72;;;4.25;;
33836;SDS011;20140;49.356;8.812;2023-05-28T02:00:00;5.82;;;4.03;;
33836;SDS011;20140;49.356;8.812;2023-05-28T02:02:25;7.05;;;3.40;;
33836;SDS011;20140;49.356;8.812;2023-05-28T02:04:52;8.45;;;4.45;;
33836;SDS011;20140;49.356;8.812;2023-05-28T02:07:18;7.13;;;3.83;;
33836;SDS011;20140;49.356;8.812;2023-05-28T02:09:43;8.47;;;3.60;;
33836;SDS011;20140;49.356;8.812;2023-05-28T02:12:10;9.20;;;3.92;;
33836;SDS011;20140;49.356;8.812;2023-05-28T02:14:36;9.25;;;4.78;;
33836;SDS011;20140;49.356;8.812;2023-05-28T02:17:01;7.60;;;3.60;;
33836;SDS011;20140;49.356;8.812;2023-05-28T02:19:27;5.38;;;3.75;;
33836;SDS011;20140;49.356;8.812;2023-05-28T02:21:53;7.30;;;3.50;;
33836;SDS011;20140;49.356;8.812;2023-05-28T02:24:20;8.18;;;4.40;;
33836;SDS011;20140;49.356;8.812;2023-05-28T02:26:46;8.63;;;3.60;;
33836;SDS011;20140;49.356;8.812;2023-05-28T02:29:12;6.65;;;3.80;;
33836;SDS011;20140;49.356;8.812;2023-05-28T02:31:38;7.43;;;3.58;;
33836;SDS011;20140;49.356;8.812;2023-05-28T02:34:03;5.38;;;3.33;;
33836;SDS011;20140;49.356;8.812;2023-05-28T02:36:29;7.73;;;3.80;;
33836;SDS011;20140;49.356;8.812;2023-05-28T02:38:54;5.53;;;3.43;;
33836;SDS011;20140;49.356;8.812;2023-05-28T02:41:20;7.97;;;4.10;;
33836;SDS011;20140;49.356;8.812;2023-05-28T02:43:45;5.53;;;3.33;;
33836;SDS011;20140;49.356;8.812;2023-05-28T02:46:11;5.60;;;3.60;;
33836;SDS011;20140;49.356;8.812;2023-05-28T02:48:37;5.53;;;3.67;;
33836;SDS011;20140;49.356;8.812;2023-05-28T02:51:03;8.23;;;4.45;;
33836;SDS011;20140;49.356;8.812;2023-05-28T02:53:29;6.35;;;4.45;;
33836;SDS011;20140;49.356;8.812;2023-05-28T02:55:58;8.93;;;3.90;;
33836;SDS011;20140;49.356;8.812;2023-05-28T02:58:24;8.10;;;4.28;;
33836;SDS011;20140;49.356;8.812;2023-05-28T03:00:49;11.23;;;4.03;;
33836;SDS011;20140;49.356;8.812;2023-05-28T03:03:15;5.97;;;3.43;;
33836;SDS011;20140;49.356;8.812;2023-05-28T03:05:41;9.43;;;3.88;;
33836;SDS011;20140;49.356;8.812;2023-05-28T03:08:07;4.88;;;3.38;;
33836;SDS011;20140;49.356;8.812;2023-05-28T03:10:33;9.35;;;4.22;;
33836;SDS011;20140;49.356;8.812;2023-05-28T03:12:58;5.30;;;3.90;;
33836;SDS011;20140;49.356;8.812;2023-05-28T03:15:24;8.70;;;4.35;;
33836;SDS011;20140;49.356;8.812;2023-05-28T03:17:51;8.43;;;4.57;;
33836;SDS011;20140;49.356;8.812;2023-05-28T03:20:17;5.82;;;3.88;;
33836;SDS011;20140;49.356;8.812;2023-05-28T03:22:43;6.80;;;4.03;;
33836;SDS011;20140;49.356;8.812;2023-05-28T03:25:10;7.93;;;3.57;;
33836;SDS011;20140;49.356;8.812;2023-05-28T03:27:36;5.90;;;3.90;;
33836;SDS011;20140;49.356;8.812;2023-05-28T03:30:01;8.57;;;4.40;;
33836;SDS011;20140;49.356;8.812;2023-05-28T03:32:28;7.53;;;4.32;;
33836;SDS011;20140;49.356;8.812;2023-05-28T03:34:54;8.20;;;3.97;;
33836;SDS011;20140;49.356;8.812;2023-05-28T03:37:19;6.18;;;3.85;;
33836;SDS011;20140;49.356;8.812;2023-05-28T03:39:45;8.20;;;4.03;;
33836;SDS011;20140;49.356;8.812;2023-05-28T03:42:11;7.28;;;4.03;;
33836;SDS011;20140;49.356;8.812;2023-05-28T03:44:37;9.13;;;4.50;;
33836;SDS011;20140;49.356;8.812;2023-05-28T03:47:02;6.00;;;4.27;;
33836;SDS011;20140;49.356;8.812;2023-05-28T03:49:28;5.50;;;3.63;;
33836;SDS011;20140;49.356;8.812;2023-05-28T03:51:53;5.80;;;3.67;;
33836;SDS011;20140;49.356;8.812;2023-05-28T03:54:19;6.93;;;3.87;;
33836;SDS011;20140;49.356;8.812;2023-05-28T03:56:45;10.02;;;4.50;;
33836;SDS011;20140;49.356;8.812;2023-05-28T03:59:10;10.18;;;5.00;;
33836;SDS011;20140;49.356;8.812;2023-05-28T04:01:35;5.45;;;3.80;;
33836;SDS011;20140;49.356;8.812;2023-05-28T04:04:02;6.90;;;4.22;;
33836;SDS011;20140;49.356;8.812;2023-05-28T04:06:27;5.57;;;3.92;;
33836;SDS011;20140;49.356;8.812;2023-05-28T04:08:53;5.30;;;3.70;;
33836;SDS011;20140;49.356;8.812;2023-05-28T04:11:19;5.22;;;3.80;;
33836;SDS011;20140;49.356;8.812;2023-05-28T04:13:46;5.50;;;4.07;;
33836;SDS011;20140;49.356;8.812;2023-05-28T04:16:13;9.60;;;3.72;;
33836;SDS011;20140;49.356;8.812;2023-05-28T04:18:38;7.90;;;3.80;;
33836;SDS011;20140;49.356;8.812;2023-05-28T04:21:04;8.67;;;4.57;;
33836;SDS011;20140;49.356;8.812;2023-05-28T04:23:30;5.38;;;3.83;;
33836;SDS011;20140;49.356;8.812;2023-05-28T04:25:56;7.32;;;5.03;;
33836;SDS011;20140;49.356;8.812;2023-05-28T04:28:21;7.43;;;4.87;;
33836;SDS011;20140;49.356;8.812;2023-05-28T04:30:52;8.70;;;4.37;;
33836;SDS011;20140;49.356;8.812;2023-05-28T04:33:25;9.55;;;4.95;;
33836;SDS011;20140;49.356;8.812;2023-05-28T04:35:53;5.45;;;4.03;;
33836;SDS011;20140;49.356;8.812;2023-05-28T04:38:23;6.65;;;4.38;;
33836;SDS011;20140;49.356;8.812;2023-05-28T04:40:49;10.52;;;5.22;;
33836;SDS011;20140;49.356;8.812;2023-05-28T04:43:15;9.05;;;4.60;;
33836;SDS011;20140;49.356;8.812;2023-05-28T04:45:41;11.53;;;4.43;;
33836;SDS011;20140;49.356;8.812;2023-05-28T04:48:07;9.73;;;4.65;;
33836;SDS011;20140;49.356;8.812;2023-05-28T04:50:33;7.40;;;4.15;;
33836;SDS011;20140;49.356;8.812;2023-05-28T04:52:59;5.85;;;3.97;;
33836;SDS011;20140;49.356;8.812;2023-05-28T04:55:25;5.85;;;3.97;;
33836;SDS011;20140;49.356;8.812;2023-05-28T04:57:50;7.10;;;4.45;;
33836;SDS011;20140;49.356;8.812;2023-05-28T05:00:16;5.87;;;4.00;;
33836;SDS011;20140;49.356;8.812;2023-05-28T05:02:42;5.85;;;4.00;;
33836;SDS011;20140;49.356;8.812;2023-05-28T05:05:08;6.22;;;4.07;;
33836;SDS011;20140;49.356;8.812;2023-05-28T05:07:34;8.90;;;4.45;;
33836;SDS011;20140;49.356;8.812;2023-05-28T05:10:01;7.07;;;4.05;;
33836;SDS011;20140;49.356;8.812;2023-05-28T05:12:27;7.32;;;4.57;;
33836;SDS011;20140;49.356;8.812;2023-05-28T05:14:53;7.23;;;4.20;;
33836;SDS011;20140;49.356;8.812;2023-05-28T05:17:18;8.07;;;3.97;;
33836;SDS011;20140;49.356;8.812;2023-05-28T05:19:44;7.57;;;4.33;;
33836;SDS011;20140;49.356;8.812;2023-05-28T05:22:09;7.05;;;4.07;;
33836;SDS011;20140;49.356;8.812;2023-05-28T05:24:35;9.60;;;5.10;;
33836;SDS011;20140;49.356;8.812;2023-05-28T05:27:00;5.60;;;4.50;;
33836;SDS011;20140;49.356;8.812;2023-05-28T05:29:26;7.00;;;4.37;;
33836;SDS011;20140;49.356;8.812;2023-05-28T05:31:52;8.93;;;5.00;;
33836;SDS011;20140;49.356;8.812;2023-05-28T05:34:17;8.37;;;4.17;;
33836;SDS011;20140;49.356;8.812;2023-05-28T05:36:43;5.78;;;3.83;;
33836;SDS011;20140;49.356;8.812;2023-05-28T05:39:08;7.33;;;4.27;;
33836;SDS011;20140;49.356;8.812;2023-05-28T05:41:34;6.33;;;4.63;;
33836;SDS011;20140;49.356;8.812;2023-05-28T05:43:59;9.40;;;4.57;;
33836;SDS011;20140;49.356;8.812;2023-05-28T05:46:25;6.35;;;4.40;;
33836;SDS011;20140;49.356;8.812;2023-05-28T05:48:50;7.97;;;4.67;;
33836;SDS011;20140;49.356;8.812;2023-05-28T05:51:16;7.13;;;4.13;;
33836;SDS011;20140;49.356;8.812;2023-05-28T05:53:43;8.37;;;5.23;;
33836;SDS011;20140;49.356;8.812;2023-05-28T05:56:09;7.05;;;4.50;;
33836;SDS011;20140;49.356;8.812;2023-05-28T05:58:35;7.57;;;3.80;;
33836;SDS011;20140;49.356;8.812;2023-05-28T06:01:01;5.63;;;3.90;;
33836;SDS011;20140;49.356;8.812;2023-05-28T06:03:26;7.72;;;5.07;;
33836;SDS011;20140;49.356;8.812;2023-05-28T06:05:55;7.93;;;4.65;;
33836;SDS011;20140;49.356;8.812;2023-05-28T06:08:21;7.88;;;4.72;;
33836;SDS011;20140;49.356;8.812;2023-05-28T06:10:46;8.50;;;3.77;;
33836;SDS011;20140;49.356;8.812;2023-05-28T06:13:16;8.35;;;4.78;;
33836;SDS011;20140;49.356;8.812;2023-05-28T06:15:42;6.82;;;4.70;;
33836;SDS011;20140;49.356;8.812;2023-05-28T06:18:08;8.70;;;5.10;;
33836;SDS011;20140;49.356;8.812;2023-05-28T06:20:34;6.33;;;4.23;;
33836;SDS011;20140;49.356;8.812;2023-05-28T06:22:59;6.33;;;4.10;;
33836;SDS011;20140;49.356;8.812;2023-05-28T06:25:25;5.37;;;3.70;;
33836;SDS011;20140;49.356;8.812;2023-05-28T06:27:52;8.20;;;4.18;;
33836;SDS011;20140;49.356;8.812;2023-05-28T06:30:17;12.35;;;4.65;;
33836;SDS011;20140;49.356;8.812;2023-05-28T06:32:43;8.33;;;4.07;;
33836;SDS011;20140;49.356;8.812;2023-05-28T06:35:08;7.40;;;3.78;;
33836;SDS011;20140;49.356;8.812;2023-05-28T06:37:34;5.30;;;4.03;;
33836;SDS011;20140;49.356;8.812;2023-05-28T06:40:00;6.88;;;3.85;;
33836;SDS011;20140;49.356;8.812;2023-05-28T06:42:25;5.43;;;4.00;;
33836;SDS011;20140;49.356;8.812;2023-05-28T06:44:51;8.97;;;4.27;;
33836;SDS011;20140;49.356;8.812;2023-05-28T06:47:16;6.15;;;4.45;;
33836;SDS011;20140;49.356;8.812;2023-05-28T06:49:42;6.30;;;3.70;;
33836;SDS011;20140;49.356;8.812;2023-05-28T06:52:07;7.80;;;4.03;;
33836;SDS011;20140;49.356;8.812;2023-05-28T06:54:33;7.30;;;3.58;;
33836;SDS011;20140;49.356;8.812;2023-05-28T06:56:58;9.00;;;4.47;;
33836;SDS011;20140;49.356;8.812;2023-05-28T06:59:24;6.93;;;4.03;;
33836;SDS011;20140;49.356;8.812;2023-05-28T07:01:49;7.40;;;3.85;;
33836;SDS011;20140;49.356;8.812;2023-05-28T07:04:15;8.50;;;4.13;;
33836;SDS011;20140;49.356;8.812;2023-05-28T07:06:40;10.20;;;4.80;;
33836;SDS011;20140;49.356;8.812;2023-05-28T07:09:06;8.97;;;3.97;;
33836;SDS011;20140;49.356;8.812;2023-05-28T07:11:31;6.40;;;3.43;;
33836;SDS011;20140;49.356;8.812;2023-05-28T07:13:57;7.78;;;3.80;;
33836;SDS011;20140;49.356;8.812;2023-05-28T07:16:22;10.50;;;4.03;;
33836;SDS011;20140;49.356;8.812;2023-05-28T07:18:48;8.20;;;4.30;;
33836;SDS011;20140;49.356;8.812;2023-05-28T07:21:14;5.60;;;4.00;;
33836;SDS011;20140;49.356;8.812;2023-05-28T07:23:39;12.83;;;5.17;;
33836;SDS011;20140;49.356;8.812;2023-05-28T07:26:05;6.97;;;4.40;;
33836;SDS011;20140;49.356;8.812;2023-05-28T07:28:31;6.13;;;4.05;;
33836;SDS011;20140;49.356;8.812;2023-05-28T07:30:57;7.05;;;4.20;;
33836;SDS011;20140;49.356;8.812;2023-05-28T07:33:22;8.52;;;4.70;;
33836;SDS011;20140;49.356;8.812;2023-05-28T07:35:48;6.13;;;4.30;;
33836;SDS011;20140;49.356;8.812;2023-05-28T07:38:13;7.30;;;3.80;;
33836;SDS011;20140;49.356;8.812;2023-05-28T07:40:42;8.07;;;3.92;;
33836;SDS011;20140;49.356;8.812;2023-05-28T07:43:08;7.55;;;3.90;;
33836;SDS011;20140;49.356;8.812;2023-05-28T07:45:34;9.05;;;3.97;;
33836;SDS011;20140;49.356;8.812;2023-05-28T07:48:00;7.33;;;3.83;;
33836;SDS011;20140;49.356;8.812;2023-05-28T07:50:26;8.93;;;5.10;;
33836;SDS011;20140;49.356;8.812;2023-05-28T07:52:51;8.80;;;5.47;;
33836;SDS011;20140;49.356;8.812;2023-05-28T07:55:17;8.70;;;4.07;;
33836;SDS011;20140;49.356;8.812;2023-05-28T07:57:43;7.73;;;4.10;;
33836;SDS011;20140;49.356;8.812;2023-05-28T08:00:08;12.23;;;4.30;;
33836;SDS011;20140;49.356;8.812;2023-05-28T08:02:41;9.93;;;4.93;;
33836;SDS011;20140;49.356;8.812;2023-05-28T08:05:07;7.38;;;3.78;;
33836;SDS011;20140;49.356;8.812;2023-05-28T08:07:33;10.00;;;3.85;;
33836;SDS011;20140;49.356;8.812;2023-05-28T08:09:59;8.98;;;3.75;;
33836;SDS011;20140;49.356;8.812;2023-05-28T08:12:25;9.00;;;4.77;;
33836;SDS011;20140;49.356;8.812;2023-05-28T08:14:50;10.68;;;4.18;;
33836;SDS011;20140;49.356;8.812;2023-05-28T08:17:16;9.77;;;3.73;;
33836;SDS011;20140;49.356;8.812;2023-05-28T08:19:41;8.97;;;3.97;;
33836;SDS011;20140;49.356;8.812;2023-05-28T08:22:07;8.45;;;3.92;;
33836;SDS011;20140;49.356;8.812;2023-05-28T08:24:33;9.88;;;4.13;;
33836;SDS011;20140;49.356;8.812;2023-05-28T08:26:59;8.97;;;4.17;;
33836;SDS011;20140;49.356;8.812;2023-05-28T08:29:24;11.30;;;4.23;;
33836;SDS011;20140;49.356;8.812;2023-05-28T08:31:50;8.90;;;4.40;;
33836;SDS011;20140;49.356;8.812;2023-05-28T08:34:16;10.18;;;4.47;;
33836;SDS011;20140;49.356;8.812;2023-05-28T08:36:41;8.20;;;4.23;;
33836;SDS011;20140;49.356;8.812;2023-05-28T08:39:07;7.40;;;3.87;;
33836;SDS011;20140;49.356;8.812;2023-05-28T08:41:33;8.95;;;4.45;;
33836;SDS011;20140;49.356;8.812;2023-05-28T08:43:59;5.97;;;3.50;;
33836;SDS011;20140;49.356;8.812;2023-05-28T08:46:24;7.87;;;4.20;;
33836;SDS011;20140;49.356;8.812;2023-05-28T08:48:52;5.95;;;4.72;;
33836;SDS011;20140;49.356;8.812;2023-05-28T08:51:18;15.05;;;4.43;;
33836;SDS011;20140;49.356;8.812;2023-05-28T08:53:47;5.93;;;3.88;;
33836;SDS011;20140;49.356;8.812;2023-05-28T08:56:12;7.00;;;4.07;;
33836;SDS011;20140;49.356;8.812;2023-05-28T08:58:38;6.40;;;4.40;;
33836;SDS011;20140;49.356;8.812;2023-05-28T09:01:05;8.77;;;3.67;;
33836;SDS011;20140;49.356;8.812;2023-05-28T09:03:34;8.25;;;4.05;;
33836;SDS011;20140;49.356;8.812;2023-05-28T09:06:00;8.20;;;4.18;;
33836;SDS011;20140;49.356;8.812;2023-05-28T09:08:27;8.25;;;4.07;;
33836;SDS011;20140;49.356;8.812;2023-05-28T09:10:55;8.57;;;4.40;;
33836;SDS011;20140;49.356;8.812;2023-05-28T09:13:21;7.38;;;4.43;;
33836;SDS011;20140;49.356;8.812;2023-05-28T09:15:50;6.90;;;3.80;;
33836;SDS011;20140;49.356;8.812;2023-05-28T09:18:22;6.63;;;3.67;;
33836;SDS011;20140;49.356;8.812;2023-05-28T09:20:48;6.75;;;4.68;;
33836;SDS011;20140;49.356;8.812;2023-05-28T09:23:15;7.63;;;3.72;;
33836;SDS011;20140;49.356;8.812;2023-05-28T09:25:42;6.55;;;3.50;;
33836;SDS011;20140;49.356;8.812;2023-05-28T09:28:09;7.97;;;5.07;;
33836;SDS011;20140;49.356;8.812;2023-05-28T09:30:37;5.57;;;4.07;;
33836;SDS011;20140;49.356;8.812;2023-05-28T09:33:03;8.75;;;4.07;;
33836;SDS011;20140;49.356;8.812;2023-05-28T09:35:30;8.82;;;3.40;;
33836;SDS011;20140;49.356;8.812;2023-05-28T09:38:14;7.18;;;4.10;;
33836;SDS011;20140;49.356;8.812;2023-05-28T09:40:41;6.07;;;3.90;;
33836;SDS011;20140;49.356;8.812;2023-05-28T09:43:07;7.15;;;3.47;;
33836;SDS011;20140;49.356;8.812;2023-05-28T09:45:33;7.53;;;4.88;;
33836;SDS011;20140;49.356;8.812;2023-05-28T09:48:00;6.28;;;4.32;;
33836;SDS011;20140;49.356;8.812;2023-05-28T09:50:26;8.97;;;3.60;;
33836;SDS011;20140;49.356;8.812;2023-05-28T09:52:54;6.97;;;4.40;;
33836;SDS011;20140;49.356;8.812;2023-05-28T09:55:23;6.13;;;3.88;;
33836;SDS011;20140;49.356;8.812;2023-05-28T09:57:58;6.53;;;3.70;;
33836;SDS011;20140;49.356;8.812;2023-05-28T10:00:52;7.88;;;4.22;;
33836;SDS011;20140;49.356;8.812;2023-05-28T10:03:34;8.02;;;3.70;;
33836;SDS011;20140;49.356;8.812;2023-05-28T10:06:04;7.25;;;4.32;;
33836;SDS011;20140;49.356;8.812;2023-05-28T10:08:35;7.07;;;4.45;;
33836;SDS011;20140;49.356;8.812;2023-05-28T10:11:04;7.40;;;3.70;;
33836;SDS011;20140;49.356;8.812;2023-05-28T10:13:33;5.70;;;3.60;;
33836;SDS011;20140;49.356;8.812;2023-05-28T10:15:59;6.43;;;3.95;;
33836;SDS011;20140;49.356;8.812;2023-05-28T10:18:25;9.23;;;4.75;;
33836;SDS011;20140;49.356;8.812;2023-05-28T10:20:52;8.77;;;4.55;;
33836;SDS011;20140;49.356;8.812;2023-05-28T10:23:19;7.78;;;4.50;;
33836;SDS011;20140;49.356;8.812;2023-05-28T10:25:46;6.63;;;3.83;;
33836;SDS011;20140;49.356;8.812;2023-05-28T10:28:15;6.78;;;3.50;;
33836;SDS011;20140;49.356;8.812;2023-05-28T10:30:41;6.28;;;3.78;;
33836;SDS011;20140;49.356;8.812;2023-05-28T10:33:07;7.20;;;4.22;;
33836;SDS011;20140;49.356;8.812;2023-05-28T10:35:34;6.18;;;3.70;;
33836;SDS011;20140;49.356;8.812;2023-05-28T10:38:14;9.32;;;4.32;;
33836;SDS011;20140;49.356;8.812;2023-05-28T10:40:39;7.68;;;4.13;;
33836;SDS011;20140;49.356;8.812;2023-05-28T10:43:05;7.03;;;3.93;;
33836;SDS011;20140;49.356;8.812;2023-05-28T10:45:57;7.35;;;4.30;;
33836;SDS011;20140;49.356;8.812;2023-05-28T10:48:22;9.90;;;4.70;;
33836;SDS011;20140;49.356;8.812;2023-05-28T10:50:57;6.13;;;4.03;;
33836;SDS011;20140;49.356;8.812;2023-05-28T10:53:24;6.80;;;4.00;;
33836;SDS011;20140;49.356;8.812;2023-05-28T10:55:50;7.30;;;3.93;;
33836;SDS011;20140;49.356;8.812;2023-05-28T11:00:48;6.70;;;4.15;;
33836;SDS011;20140;49.356;8.812;2023-05-28T11:03:14;6.80;;;4.03;;
33836;SDS011;20140;49.356;8.812;2023-05-28T11:05:39;6.60;;;3.93;;
33836;SDS011;20140;49.356;8.812;2023-05-28T11:08:05;4.43;;;2.80;;
33836;SDS011;20140;49.356;8.812;2023-05-28T11:10:31;4.47;;;2.85;;
33836;SDS011;20140;49.356;8.812;2023-05-28T11:12:58;6.97;;;4.30;;
33836;SDS011;20140;49.356;8.812;2023-05-28T11:15:24;8.18;;;3.80;;
33836;SDS011;20140;49.356;8.812;2023-05-28T11:17:50;5.35;;;3.83;;
33836;SDS011;20140;49.356;8.812;2023-05-28T11:22:41;5.28;;;3.60;;
33836;SDS011;20140;49.356;8.812;2023-05-28T11:25:07;8.00;;;4.63;;
33836;SDS011;20140;49.356;8.812;2023-05-28T11:27:34;8.40;;;4.75;;
33836;SDS011;20140;49.356;8.812;2023-05-28T11:30:14;8.40;;;4.35;;
33836;SDS011;20140;49.356;8.812;2023-05-28T11:32:41;6.93;;;4.10;;
33836;SDS011;20140;49.356;8.812;2023-05-28T11:35:11;7.30;;;4.43;;
33836;SDS011;20140;49.356;8.812;2023-05-28T11:37:38;6.55;;;4.55;;
33836;SDS011;20140;49.356;8.812;2023-05-28T11:40:06;7.53;;;3.90;;
33836;SDS011;20140;49.356;8.812;2023-05-28T11:42:37;10.17;;;4.43;;
33836;SDS011;20140;49.356;8.812;2023-05-28T11:45:04;6.13;;;4.32;;
33836;SDS011;20140;49.356;8.812;2023-05-28T11:47:32;6.97;;;4.33;;
33836;SDS011;20140;49.356;8.812;2023-05-28T11:49:58;6.13;;;4.32;;
33836;SDS011;20140;49.356;8.812;2023-05-28T11:52:24;6.97;;;4.53;;
33836;SDS011;20140;49.356;8.812;2023-05-28T11:54:54;7.05;;;4.60;;
33836;SDS011;20140;49.356;8.812;2023-05-28T11:57:22;6.53;;;4.22;;
33836;SDS011;20140;49.356;8.812;2023-05-28T12:00:03;9.07;;;4.65;;
33836;SDS011;20140;49.356;8.812;2023-05-28T12:02:35;6.22;;;4.43;;
33836;SDS011;20140;49.356;8.812;2023-05-28T12:05:10;7.70;;;4.50;;
33836;SDS011;20140;49.356;8.812;2023-05-28T12:07:37;7.30;;;4.68;;
33836;SDS011;20140;49.356;8.812;2023-05-28T12:10:09;7.88;;;5.18;;
33836;SDS011;20140;49.356;8.812;2023-05-28T12:12:43;10.75;;;5.07;;
33836;SDS011;20140;49.356;8.812;2023-05-28T12:15:13;5.63;;;4.82;;
33836;SDS011;20140;49.356;8.812;2023-05-28T12:17:40;6.60;;;5.03;;
33836;SDS011;20140;49.356;8.812;2023-05-28T12:20:28;7.78;;;4.82;;
33836;SDS011;20140;49.356;8.812;2023-05-28T12:23:05;8.77;;;5.28;;
33836;SDS011;20140;49.356;8.812;2023-05-28T12:28:14;9.23;;;5.38;;
33836;SDS011;20140;49.356;8.812;2023-05-28T12:30:50;6.25;;;4.55;;
33836;SDS011;20140;49.356;8.812;2023-05-28T12:33:17;7.35;;;5.30;;
33836;SDS011;20140;49.356;8.812;2023-05-28T12:35:43;7.05;;;4.80;;
33836;SDS011;20140;49.356;8.812;2023-05-28T12:38:09;8.13;;;4.70;;
33836;SDS011;20140;49.356;8.812;2023-05-28T12:40:35;8.17;;;4.97;;
33836;SDS011;20140;49.356;8.812;2023-05-28T12:43:00;6.05;;;5.03;;
33836;SDS011;20140;49.356;8.812;2023-05-28T12:45:27;9.63;;;5.27;;
33836;SDS011;20140;49.356;8.812;2023-05-28T12:47:52;7.82;;;4.55;;
33836;SDS011;20140;49.356;8.812;2023-05-28T12:50:19;7.57;;;5.38;;
33836;SDS011;20140;49.356;8.812;2023-05-28T12:52:45;8.63;;;4.93;;
33836;SDS011;20140;49.356;8.812;2023-05-28T12:55:10;7.40;;;4.93;;
33836;SDS011;20140;49.356;8.812;2023-05-28T12:57:36;8.07;;;6.37;;
33836;SDS011;20140;49.356;8.812;2023-05-28T13:00:02;9.07;;;5.78;;
33836;SDS011;20140;49.356;8.812;2023-05-28T13:02:35;8.70;;;5.57;;
33836;SDS011;20140;49.356;8.812;2023-05-28T13:05:01;6.88;;;5.15;;
33836;SDS011;20140;49.356;8.812;2023-05-28T13:07:27;7.88;;;5.05;;
33836;SDS011;20140;49.356;8.812;2023-05-28T13:09:53;6.80;;;5.07;;
33836;SDS011;20140;49.356;8.812;2023-05-28T13:12:18;6.75;;;5.55;;
33836;SDS011;20140;49.356;8.812;2023-05-28T13:14:44;8.90;;;5.30;;
33836;SDS011;20140;49.356;8.812;2023-05-28T13:17:09;6.77;;;5.00;;
33836;SDS011;20140;49.356;8.812;2023-05-28T13:19:35;9.47;;;5.10;;
33836;SDS011;20140;49.356;8.812;2023-05-28T13:22:01;6.47;;;5.47;;
33836;SDS011;20140;49.356;8.812;2023-05-28T13:24:27;8.75;;;5.35;;
33836;SDS011;20140;49.356;8.812;2023-05-28T13:26:52;8.07;;;5.63;;
33836;SDS011;20140;49.356;8.812;2023-05-28T13:29:18;9.20;;;5.65;;
33836;SDS011;20140;49.356;8.812;2023-05-28T13:31:44;7.68;;;5.10;;
33836;SDS011;20140;49.356;8.812;2023-05-28T13:34:09;7.40;;;5.50;;
33836;SDS011;20140;49.356;8.812;2023-05-28T13:36:35;8.77;;;5.15;;
33836;SDS011;20140;49.356;8.812;2023-05-28T13:39:01;8.80;;;5.20;;
33836;SDS011;20140;49.356;8.812;2023-05-28T13:41:27;7.90;;;5.75;;
33836;SDS011;20140;49.356;8.812;2023-05-28T13:43:53;8.90;;;5.70;;
33836;SDS011;20140;49.356;8.812;2023-05-28T13:46:19;8.52;;;5.63;;
33836;SDS011;20140;49.356;8.812;2023-05-28T13:48:45;9.02;;;6.05;;
33836;SDS011;20140;49.356;8.812;2023-05-28T13:51:11;6.23;;;5.20;;
33836;SDS011;20140;49.356;8.812;2023-05-28T13:53:37;9.20;;;5.63;;
33836;SDS011;20140;49.356;8.812;2023-05-28T13:56:03;7.72;;;5.47;;
33836;SDS011;20140;49.356;8.812;2023-05-28T13:58:29;9.63;;;6.10;;
33836;SDS011;20140;49.356;8.812;2023-05-28T14:00:54;7.87;;;5.07;;
33836;SDS011;20140;49.356;8.812;2023-05-28T14:03:20;7.25;;;5.32;;
33836;SDS011;20140;49.356;8.812;2023-05-28T14:05:46;6.80;;;5.70;;
33836;SDS011;20140;49.356;8.812;2023-05-28T14:08:13;9.45;;;5.82;;
33836;SDS011;20140;49.356;8.812;2023-05-28T14:10:38;7.00;;;5.50;;
33836;SDS011;20140;49.356;8.812;2023-05-28T14:13:04;8.60;;;4.97;;
33836;SDS011;20140;49.356;8.812;2023-05-28T14:15:30;7.90;;;5.27;;
33836;SDS011;20140;49.356;8.812;2023-05-28T14:17:56;7.47;;;5.77;;
33836;SDS011;20140;49.356;8.812;2023-05-28T14:20:21;7.57;;;5.70;;
33836;SDS011;20140;49.356;8.812;2023-05-28T14:22:47;9.60;;;6.03;;
33836;SDS011;20140;49.356;8.812;2023-05-28T14:25:12;7.43;;;5.77;;
33836;SDS011;20140;49.356;8.812;2023-05-28T14:27:38;9.77;;;5.60;;
33836;SDS011;20140;49.356;8.812;2023-05-28T14:30:04;6.55;;;4.53;;
33836;SDS011;20140;49.356;8.812;2023-05-28T14:32:30;7.93;;;5.32;;
33836;SDS011;20140;49.356;8.812;2023-05-28T14:34:57;7.13;;;5.60;;
33836;SDS011;20140;49.356;8.812;2023-05-28T14:37:24;7.85;;;5.70;;
33836;SDS011;20140;49.356;8.812;2023-05-28T14:39:50;6.90;;;5.50;;
33836;SDS011;20140;49.356;8.812;2023-05-28T14:42:15;7.20;;;5.17;;
33836;SDS011;20140;49.356;8.812;2023-05-28T14:44:40;7.43;;;5.75;;
33836;SDS011;20140;49.356;8.812;2023-05-28T14:47:06;7.75;;;5.75;;
33836;SDS011;20140;49.356;8.812;2023-05-28T14:49:31;6.50;;;5.80;;
33836;SDS011;20140;49.356;8.812;2023-05-28T14:51:57;7.00;;;5.47;;